createdAt,value
2019-06-10T00:00:25.125Z,15.04
2019-06-10T00:02:55.661Z,14.99
2019-06-10T00:05:26.228Z,15.05
2019-06-10T00:07:57.775Z,15.16
2019-06-10T00:10:28.467Z,15.22
2019-06-10T00:13:02.129Z,15.24
2019-06-10T00:15:31.488Z,15.27
2019-06-10T00:18:26.482Z,15.25
2019-06-10T00:20:34.350Z,15.31
2019-06-10T00:23:05.654Z,15.29
2019-06-10T00:25:37.242Z,15.25
2019-06-10T00:28:08.858Z,15.28
2019-06-10T00:30:41.148Z,15.28
2019-06-10T00:33:12.729Z,15.28
2019-06-10T00:35:43.386Z,15.26
2019-06-10T00:38:14.577Z,15.20
2019-06-10T00:40:45.149Z,15.15
2019-06-10T00:43:15.716Z,15.21
2019-06-10T00:45:46.286Z,15.17
2019-06-10T00:48:25.086Z,15.20
2019-06-10T00:50:51.621Z,15.24
2019-06-10T00:53:21.774Z,15.34
2019-06-10T00:55:52.417Z,15.25
2019-06-10T00:58:22.879Z,15.34
2019-06-10T01:00:53.486Z,15.23
2019-06-10T01:03:24.020Z,15.36
2019-06-10T01:05:54.563Z,15.27
2019-06-10T01:08:25.085Z,15.24
2019-06-10T01:10:55.597Z,15.29
2019-06-10T01:13:26.179Z,15.34
2019-06-10T01:15:56.718Z,15.28
2019-06-10T01:18:35.679Z,15.20
2019-06-10T01:21:01.790Z,15.27
2019-06-10T01:23:31.773Z,15.27
2019-06-10T01:26:02.362Z,15.26
2019-06-10T01:28:32.774Z,15.35
2019-06-10T01:31:03.488Z,15.26
2019-06-10T01:33:34.067Z,15.28
2019-06-10T01:36:05.511Z,15.18
2019-06-10T01:38:36.311Z,15.26
2019-06-10T01:41:08.058Z,15.22
2019-06-10T01:43:40.755Z,15.26
2019-06-10T01:46:14.084Z,15.30
2019-06-10T01:48:47.927Z,15.25
2019-06-10T01:51:21.421Z,15.09
2019-06-10T01:53:51.841Z,15.19
2019-06-10T01:56:22.394Z,15.14
2019-06-10T01:58:52.933Z,15.17
2019-06-10T02:01:38.531Z,15.16
2019-06-10T02:04:11.585Z,15.12
2019-06-10T02:06:41.605Z,15.07
2019-06-10T02:09:15.072Z,15.10
2019-06-10T02:11:44.438Z,15.07
2019-06-10T02:14:17.604Z,15.07
2019-06-10T02:16:47.169Z,15.05
2019-06-10T02:19:18.694Z,15.11
2019-06-10T02:21:51.052Z,14.97
2019-06-10T02:24:23.314Z,14.99
2019-06-10T02:26:53.830Z,14.93
2019-06-10T02:29:24.341Z,14.97
2019-06-10T02:31:54.815Z,14.96
2019-06-10T02:34:27.467Z,14.96
2019-06-10T02:36:57.634Z,14.90
2019-06-10T02:39:35.040Z,15.08
2019-06-10T02:42:05.622Z,15.04
2019-06-10T02:44:37.512Z,15.02
2019-06-10T02:47:08.496Z,14.99
2019-06-10T02:49:52.837Z,14.89
2019-06-10T02:52:24.650Z,14.82
2019-06-10T02:54:53.742Z,14.88
2019-06-10T02:57:30.541Z,14.80
2019-06-10T02:59:56.627Z,14.82
2019-06-10T03:02:31.542Z,14.81
2019-06-10T03:04:59.360Z,14.80
2019-06-10T03:07:32.603Z,14.73
2019-06-10T03:10:04.611Z,14.71
2019-06-10T03:12:34.564Z,14.83
2019-06-10T03:15:05.773Z,14.83
2019-06-10T03:17:36.293Z,14.76
2019-06-10T03:20:07.027Z,14.86
2019-06-10T03:22:37.514Z,14.86
2019-06-10T03:25:08.086Z,14.73
2019-06-10T03:27:38.648Z,14.63
2019-06-10T03:30:16.935Z,14.63
2019-06-10T03:32:46.827Z,14.65
2019-06-10T03:35:14.234Z,14.65
2019-06-10T03:37:44.740Z,14.61
2019-06-10T03:40:16.468Z,14.58
2019-06-10T03:42:47.488Z,14.71
2019-06-10T03:45:19.540Z,14.60
2019-06-10T03:47:50.059Z,14.64
2019-06-10T03:50:23.942Z,14.71
2019-06-10T03:52:52.959Z,14.64
2019-06-10T03:55:26.325Z,14.52
2019-06-10T03:57:55.812Z,14.67
2019-06-10T04:00:27.599Z,14.60
2019-06-10T04:02:58.762Z,14.60
2019-06-10T04:05:29.298Z,14.62
2019-06-10T04:08:02.010Z,14.62
2019-06-10T04:10:32.459Z,14.54
2019-06-10T04:13:03.056Z,14.60
2019-06-10T04:15:33.573Z,14.65
2019-06-10T04:18:04.190Z,14.45
2019-06-10T04:20:34.750Z,14.40
2019-06-10T04:23:05.361Z,14.39
2019-06-10T04:25:39.834Z,14.32
2019-06-10T04:28:12.367Z,14.29
2019-06-10T04:30:43.283Z,14.34
2019-06-10T04:33:14.011Z,14.29
2019-06-10T04:35:44.491Z,14.25
2019-06-10T04:38:14.949Z,14.21
2019-06-10T04:40:45.546Z,14.32
2019-06-10T04:43:15.992Z,14.26
2019-06-10T04:45:46.453Z,14.24
2019-06-10T04:48:16.973Z,14.25
2019-06-10T04:50:47.480Z,14.24
2019-06-10T04:53:18.698Z,14.27
2019-06-10T04:55:49.243Z,14.35
2019-06-10T04:58:21.506Z,14.33
2019-06-10T05:00:52.330Z,14.50
2019-06-10T05:03:23.826Z,14.50
2019-06-10T05:05:55.199Z,14.54
2019-06-10T05:08:26.889Z,14.44
2019-06-10T05:10:57.939Z,14.57
2019-06-10T05:13:29.893Z,14.49
2019-06-10T05:16:03.323Z,14.60
2019-06-10T05:18:33.204Z,14.59
2019-06-10T05:21:04.067Z,14.54
2019-06-10T05:23:34.540Z,14.54
2019-06-10T05:26:05.038Z,14.61
2019-06-10T05:28:35.526Z,14.61
2019-06-10T05:31:06.016Z,14.56
2019-06-10T05:33:36.558Z,14.58
2019-06-10T05:36:07.035Z,14.64
2019-06-10T05:38:37.578Z,14.74
2019-06-10T05:41:08.072Z,14.66
2019-06-10T05:43:38.642Z,14.59
2019-06-10T05:46:09.135Z,14.55
2019-06-10T05:48:39.680Z,14.59
2019-06-10T05:51:12.226Z,14.63
2019-06-10T05:53:45.763Z,14.52
2019-06-10T05:56:14.668Z,14.46
2019-06-10T05:58:45.074Z,14.43
2019-06-10T06:01:15.576Z,14.39
2019-06-10T06:03:46.082Z,14.38
2019-06-10T06:06:16.590Z,14.26
2019-06-10T06:08:47.174Z,14.35
2019-06-10T06:11:17.639Z,14.27
2019-06-10T06:13:48.121Z,14.39
2019-06-10T06:16:18.592Z,14.41
2019-06-10T06:18:49.072Z,14.44
2019-06-10T06:21:26.719Z,14.47
2019-06-10T06:23:52.862Z,14.37
2019-06-10T06:26:23.978Z,14.42
2019-06-10T06:28:54.637Z,14.37
2019-06-10T06:31:26.161Z,14.44
2019-06-10T06:33:56.930Z,14.51
2019-06-10T06:36:28.582Z,14.51
2019-06-10T06:38:59.310Z,14.53
2019-06-10T06:41:29.843Z,14.47
2019-06-10T06:44:02.335Z,14.61
2019-06-10T06:46:36.603Z,14.54
2019-06-10T06:49:04.917Z,14.54
2019-06-10T06:51:47.562Z,14.61
2019-06-10T06:54:07.717Z,14.73
2019-06-10T06:56:39.270Z,14.70
2019-06-10T06:59:12.966Z,14.65
2019-06-10T07:01:44.225Z,14.73
2019-06-10T07:04:14.936Z,14.69
2019-06-10T07:06:45.450Z,14.73
2019-06-10T07:09:17.448Z,14.79
2019-06-10T07:11:49.618Z,14.77
2019-06-10T07:14:23.759Z,14.91
2019-06-10T07:16:53.591Z,14.89
2019-06-10T07:19:24.083Z,15.15
2019-06-10T07:22:08.320Z,15.18
2019-06-10T07:24:26.846Z,15.37
2019-06-10T07:26:57.352Z,15.31
2019-06-10T07:29:27.851Z,15.37
2019-06-10T07:31:58.322Z,15.47
2019-06-10T07:34:33.890Z,15.51
2019-06-10T07:37:03.111Z,15.47
2019-06-10T07:39:35.237Z,15.53
2019-06-10T07:42:05.796Z,15.57
2019-06-10T07:44:37.537Z,15.66
2019-06-10T07:47:08.060Z,15.71
2019-06-10T07:49:39.279Z,15.75
2019-06-10T07:52:16.538Z,15.78
2019-06-10T07:54:44.024Z,15.79
2019-06-10T07:57:14.433Z,16.02
2019-06-10T07:59:45.983Z,15.86
2019-06-10T08:02:16.704Z,15.95
2019-06-10T08:04:47.210Z,15.89
2019-06-10T08:07:17.701Z,15.91
2019-06-10T08:09:48.251Z,15.98
2019-06-10T08:12:18.785Z,15.97
2019-06-10T08:14:49.282Z,15.86
2019-06-10T08:17:22.258Z,15.94
2019-06-10T08:19:54.250Z,15.85
2019-06-10T08:22:37.222Z,15.90
2019-06-10T08:24:56.429Z,16.06
2019-06-10T08:27:26.948Z,16.09
2019-06-10T08:30:14.344Z,16.26
2019-06-10T08:32:29.699Z,16.07
2019-06-10T08:35:02.612Z,15.88
2019-06-10T08:37:33.183Z,16.01
2019-06-10T08:40:05.873Z,15.93
2019-06-10T08:42:36.562Z,15.90
2019-06-10T08:45:07.487Z,15.94
2019-06-10T08:47:39.113Z,16.08
2019-06-10T08:50:09.825Z,16.21
2019-06-10T08:52:56.046Z,16.11
2019-06-10T08:55:12.855Z,16.06
2019-06-10T08:57:47.055Z,16.08
2019-06-10T09:00:18.579Z,16.03
2019-06-10T09:02:50.797Z,16.07
2019-06-10T09:05:23.250Z,16.03
2019-06-10T09:07:54.597Z,16.05
2019-06-10T09:10:25.185Z,15.95
2019-06-10T09:12:55.704Z,15.82
2019-06-10T09:15:27.008Z,15.78
2019-06-10T09:17:57.541Z,15.78
2019-06-10T09:20:28.532Z,15.75
2019-06-10T09:23:15.158Z,15.90
2019-06-10T09:25:33.344Z,15.80
2019-06-10T09:28:03.523Z,15.99
2019-06-10T09:30:34.005Z,16.19
2019-06-10T09:33:04.926Z,16.12
2019-06-10T09:35:35.526Z,16.16
2019-06-10T09:38:06.008Z,16.34
2019-06-10T09:41:00.299Z,16.46
2019-06-10T09:43:24.922Z,16.55
2019-06-10T09:45:56.640Z,16.36
2019-06-10T09:48:27.412Z,16.70
2019-06-10T09:50:59.250Z,16.69
2019-06-10T09:53:38.909Z,16.83
2019-06-10T09:56:04.145Z,16.95
2019-06-10T09:58:34.473Z,16.91
2019-06-10T10:01:05.337Z,17.06
2019-06-10T10:03:35.837Z,17.33
2019-06-10T10:06:14.521Z,17.32
2019-06-10T10:08:39.236Z,17.46
2019-06-10T10:11:12.354Z,17.43
2019-06-10T10:13:45.262Z,17.77
2019-06-10T10:16:14.349Z,17.77
2019-06-10T10:18:48.939Z,18.12
2019-06-10T10:21:17.232Z,18.14
2019-06-10T10:24:00.580Z,18.42
2019-06-10T10:26:20.746Z,18.49
2019-06-10T10:28:53.263Z,18.57
2019-06-10T10:31:24.118Z,18.52
2019-06-10T10:33:54.766Z,18.67
2019-06-10T10:36:25.301Z,18.50
2019-06-10T10:38:55.826Z,18.60
2019-06-10T10:41:26.311Z,18.56
2019-06-10T10:43:58.477Z,18.79
2019-06-10T10:46:29.135Z,19.17
2019-06-10T10:48:59.632Z,19.24
2019-06-10T10:51:32.522Z,19.39
2019-06-10T10:54:20.869Z,19.31
2019-06-10T10:56:34.870Z,18.95
2019-06-10T10:59:05.473Z,18.93
2019-06-10T11:01:36.028Z,19.02
2019-06-10T11:04:07.012Z,19.02
2019-06-10T11:06:37.500Z,19.19
2019-06-10T11:09:13.007Z,19.32
2019-06-10T11:11:44.541Z,19.66
2019-06-10T11:14:16.539Z,19.61
2019-06-10T11:16:47.206Z,19.65
2019-06-10T11:19:17.726Z,20.01
2019-06-10T11:21:49.477Z,20.43
2019-06-10T11:24:33.631Z,20.65
2019-06-10T11:26:55.167Z,20.96
2019-06-10T11:29:24.690Z,20.78
2019-06-10T11:31:57.397Z,20.83
2019-06-10T11:34:27.395Z,20.91
2019-06-10T11:36:58.342Z,21.15
2019-06-10T11:39:29.028Z,21.03
2019-06-10T11:42:02.224Z,21.02
2019-06-10T11:44:33.863Z,20.92
2019-06-10T11:47:04.550Z,20.90
2019-06-10T11:49:35.027Z,20.94
2019-06-10T11:52:05.557Z,21.40
2019-06-10T11:54:50.623Z,21.60
2019-06-10T11:57:08.447Z,21.84
2019-06-10T11:59:38.974Z,22.23
2019-06-10T12:02:09.534Z,22.03
2019-06-10T12:04:40.100Z,21.96
2019-06-10T12:07:12.739Z,21.94
2019-06-10T12:09:42.835Z,22.13
2019-06-10T12:12:13.615Z,22.16
2019-06-10T12:14:44.666Z,21.90
2019-06-10T12:17:30.789Z,21.98
2019-06-10T12:19:47.378Z,22.39
2019-06-10T12:22:17.856Z,22.50
2019-06-10T12:24:50.222Z,23.41
2019-06-10T12:27:20.578Z,24.68
2019-06-10T12:29:54.082Z,25.46
2019-06-10T12:32:23.408Z,24.91
2019-06-10T12:34:54.577Z,24.27
2019-06-10T12:37:26.102Z,24.21
2019-06-10T12:39:59.376Z,24.15
2019-06-10T12:42:28.757Z,23.58
2019-06-10T12:45:00.684Z,24.37
2019-06-10T12:47:33.238Z,24.70
2019-06-10T12:50:05.389Z,25.23
2019-06-10T12:52:36.082Z,25.27
2019-06-10T12:55:07.492Z,24.69
2019-06-10T12:57:38.011Z,25.29
2019-06-10T13:00:20.562Z,26.27
2019-06-10T13:02:43.123Z,26.48
2019-06-10T13:05:14.146Z,25.56
2019-06-10T13:07:47.717Z,26.03
2019-06-10T13:10:37.832Z,27.62
2019-06-10T13:13:09.339Z,27.15
2019-06-10T13:15:38.954Z,28.02
2019-06-10T13:18:13.542Z,28.23
2019-06-10T13:20:39.664Z,27.88
2019-06-10T13:23:20.467Z,28.11
2019-06-10T13:25:51.244Z,28.30
2019-06-10T13:28:11.622Z,29.27
2019-06-10T13:30:42.843Z,27.42
2019-06-10T13:33:14.700Z,28.40
2019-06-10T13:35:44.334Z,28.82
2019-06-10T13:38:14.008Z,29.37
2019-06-10T13:40:44.156Z,28.32
2019-06-10T13:43:13.628Z,26.80
2019-06-10T13:45:43.186Z,25.29
2019-06-10T13:48:14.963Z,24.23
2019-06-10T13:50:43.952Z,23.44
2019-06-10T13:53:13.713Z,25.22
2019-06-10T13:55:43.693Z,26.29
2019-06-10T13:58:14.717Z,26.86
2019-06-10T14:00:46.734Z,26.38
2019-06-10T14:03:16.229Z,25.46
2019-06-10T14:05:46.031Z,25.21
2019-06-10T14:08:15.602Z,24.51
2019-06-10T14:10:45.097Z,24.76
2019-06-10T14:13:15.668Z,25.40
2019-06-10T14:15:45.581Z,26.65
2019-06-10T14:18:15.399Z,26.91
2019-06-10T14:20:45.282Z,27.19
2019-06-10T14:23:17.435Z,26.48
2019-06-10T14:25:45.985Z,26.89
2019-06-10T14:28:34.942Z,26.69
2019-06-10T14:30:46.737Z,26.76
2019-06-10T14:33:16.737Z,27.14
2019-06-10T14:35:46.436Z,27.57
2019-06-10T14:38:15.977Z,26.92
2019-06-10T14:40:45.517Z,25.15
2019-06-10T14:43:16.325Z,24.47
2019-06-10T14:45:45.869Z,23.90
2019-06-10T14:48:17.240Z,23.77
2019-06-10T14:50:46.571Z,25.09
2019-06-10T14:53:16.920Z,25.37
2019-06-10T14:55:46.539Z,25.50
2019-06-10T14:58:18.457Z,26.72
2019-06-10T15:00:47.236Z,26.97
2019-06-10T15:03:19.875Z,26.90
2019-06-10T15:05:47.939Z,25.68
2019-06-10T15:08:17.400Z,24.33
2019-06-10T15:10:46.884Z,23.69
2019-06-10T15:13:16.446Z,23.22
2019-06-10T15:15:46.533Z,24.51
2019-06-10T15:18:18.113Z,25.38
2019-06-10T15:20:47.337Z,25.62
2019-06-10T15:23:18.712Z,26.06
2019-06-10T15:25:52.508Z,26.32
2019-06-10T15:28:20.469Z,26.20
2019-06-10T15:30:52.499Z,26.16
2019-06-10T15:33:23.751Z,26.60
2019-06-10T15:35:53.535Z,26.73
2019-06-10T15:38:23.542Z,26.09
2019-06-10T15:40:53.570Z,26.47
2019-06-10T15:43:23.688Z,26.35
2019-06-10T15:45:53.354Z,26.88
2019-06-10T15:48:25.298Z,26.85
2019-06-10T15:50:54.111Z,27.36
2019-06-10T15:53:25.704Z,28.39
2019-06-10T15:56:13.355Z,27.95
2019-06-10T15:58:26.210Z,27.10
2019-06-10T16:00:55.713Z,27.70
2019-06-10T16:03:25.839Z,27.45
2019-06-10T16:05:55.405Z,27.08
2019-06-10T16:08:24.888Z,26.78
2019-06-10T16:10:54.348Z,27.23
2019-06-10T16:13:25.823Z,26.91
2019-06-10T16:15:55.064Z,26.68
2019-06-10T16:18:27.882Z,26.17
2019-06-10T16:20:55.898Z,26.33
2019-06-10T16:23:26.747Z,26.33
2019-06-10T16:25:56.416Z,26.85
2019-06-10T16:28:26.547Z,26.29
2019-06-10T16:30:56.149Z,24.67
2019-06-10T16:33:27.660Z,23.59
2019-06-10T16:35:56.925Z,23.13
2019-06-10T16:38:27.274Z,22.58
2019-06-10T16:40:56.818Z,22.00
2019-06-10T16:43:27.667Z,21.89
2019-06-10T16:45:57.314Z,21.54
2019-06-10T16:48:26.777Z,21.50
2019-06-10T16:50:56.371Z,21.44
2019-06-10T16:53:28.917Z,21.46
2019-06-10T16:55:57.077Z,21.27
2019-06-10T16:58:28.434Z,21.26
2019-06-10T17:00:57.867Z,21.13
2019-06-10T17:03:29.191Z,20.80
2019-06-10T17:05:58.591Z,20.67
2019-06-10T17:08:28.585Z,20.65
2019-06-10T17:10:58.263Z,20.40
2019-06-10T17:13:30.172Z,20.27
2019-06-10T17:15:59.766Z,20.41
2019-06-10T17:18:30.109Z,20.61
2019-06-10T17:21:02.713Z,20.38
2019-06-10T17:23:36.007Z,20.22
2019-06-10T17:26:02.271Z,19.98
2019-06-10T17:28:36.315Z,19.85
2019-06-10T17:31:03.913Z,19.90
2019-06-10T17:33:35.784Z,19.72
2019-06-10T17:36:04.942Z,19.75
2019-06-10T17:38:34.421Z,19.63
2019-06-10T17:41:03.902Z,19.57
2019-06-10T17:43:34.431Z,19.55
2019-06-10T17:46:04.129Z,19.57
2019-06-10T17:48:33.969Z,19.54
2019-06-10T17:51:03.579Z,19.49
2019-06-10T17:53:34.972Z,19.56
2019-06-10T17:56:04.225Z,19.56
2019-06-10T17:58:50.362Z,19.55
2019-06-10T18:01:04.928Z,19.39
2019-06-10T18:03:35.777Z,19.34
2019-06-10T18:06:05.630Z,19.37
2019-06-10T18:08:36.657Z,19.33
2019-06-10T18:11:06.220Z,19.17
2019-06-10T18:13:36.133Z,18.99
2019-06-10T18:16:05.766Z,18.93
2019-06-10T18:18:37.119Z,18.93
2019-06-10T18:21:06.552Z,18.83
2019-06-10T18:23:36.069Z,18.88
2019-06-10T18:26:05.530Z,18.79
2019-06-10T18:28:56.744Z,18.90
2019-06-10T18:31:06.267Z,18.75
2019-06-10T18:33:37.844Z,18.78
2019-06-10T18:36:06.987Z,18.75
2019-06-10T18:38:37.316Z,18.58
2019-06-10T18:41:06.903Z,18.54
2019-06-10T18:43:36.971Z,18.43
2019-06-10T18:46:06.495Z,18.34
2019-06-10T18:48:38.071Z,18.33
2019-06-10T18:51:07.371Z,18.26
2019-06-10T18:53:36.815Z,18.23
2019-06-10T18:56:06.292Z,18.15
2019-06-10T18:58:37.428Z,18.14
2019-06-10T19:01:08.114Z,18.03
2019-06-10T19:03:38.295Z,17.92
2019-06-10T19:06:09.059Z,17.86
2019-06-10T19:08:39.287Z,17.85
2019-06-10T19:11:09.748Z,17.84
2019-06-10T19:13:40.987Z,17.73
2019-06-10T19:16:12.761Z,17.71
2019-06-10T19:18:43.155Z,17.61
2019-06-10T19:21:13.292Z,17.61
2019-06-10T19:23:43.903Z,17.63
2019-06-10T19:26:13.754Z,17.53
2019-06-10T19:28:45.219Z,17.51
2019-06-10T19:31:14.592Z,17.52
2019-06-10T19:33:45.144Z,17.46
2019-06-10T19:36:15.031Z,17.42
2019-06-10T19:38:44.584Z,17.27
2019-06-10T19:41:14.004Z,17.44
2019-06-10T19:43:45.381Z,17.36
2019-06-10T19:46:14.781Z,17.31
2019-06-10T19:48:55.641Z,17.36
2019-06-10T19:51:15.600Z,17.37
2019-06-10T19:53:45.258Z,17.33
2019-06-10T19:56:14.579Z,17.30
2019-06-10T19:58:46.221Z,17.24
2019-06-10T20:01:15.293Z,17.23
2019-06-10T20:03:46.797Z,17.22
2019-06-10T20:06:16.011Z,17.23
2019-06-10T20:08:46.222Z,17.16
2019-06-10T20:11:15.764Z,17.12
2019-06-10T20:13:46.757Z,17.10
2019-06-10T20:16:16.445Z,17.14
2019-06-10T20:18:48.198Z,17.10
2019-06-10T20:21:17.255Z,17.14
2019-06-10T20:23:47.877Z,17.18
2019-06-10T20:26:18.249Z,17.11
2019-06-10T20:28:52.233Z,17.10
2019-06-10T20:31:19.012Z,17.10
2019-06-10T20:33:48.491Z,17.08
2019-06-10T20:36:23.377Z,16.99
2019-06-10T20:38:50.642Z,16.99
2019-06-10T20:41:20.494Z,16.99
2019-06-10T20:43:52.618Z,16.98
2019-06-10T20:46:23.519Z,16.83
2019-06-10T20:48:54.626Z,16.80
2019-06-10T20:51:26.880Z,16.71
2019-06-10T20:53:54.911Z,16.74
2019-06-10T20:56:24.356Z,16.73
2019-06-10T20:58:53.867Z,16.78
2019-06-10T21:01:25.307Z,16.72
2019-06-10T21:03:54.649Z,16.72
2019-06-10T21:06:25.065Z,16.61
2019-06-10T21:08:55.881Z,16.65
2019-06-10T21:11:25.384Z,16.53
2019-06-10T21:13:55.649Z,16.50
2019-06-10T21:16:25.467Z,16.48
2019-06-10T21:18:55.696Z,16.48
2019-06-10T21:21:25.529Z,16.47
2019-06-10T21:23:54.965Z,16.46
2019-06-10T21:26:24.358Z,16.34
2019-06-10T21:28:55.088Z,16.33
2019-06-10T21:31:24.710Z,16.29
2019-06-10T21:33:55.677Z,16.25
2019-06-10T21:36:25.542Z,16.17
2019-06-10T21:38:55.892Z,16.20
2019-06-10T21:41:25.560Z,16.16
2019-06-10T21:43:59.102Z,16.09
2019-06-10T21:46:26.196Z,16.00
2019-06-10T21:48:56.095Z,16.02
2019-06-10T21:51:25.759Z,15.97
2019-06-10T21:53:55.417Z,15.90
2019-06-10T21:56:24.912Z,15.86
2019-06-10T21:58:55.691Z,15.86
2019-06-10T22:01:25.365Z,15.86
2019-06-10T22:04:00.736Z,15.78
2019-06-10T22:06:26.142Z,15.81
2019-06-10T22:08:56.618Z,15.91
2019-06-10T22:11:26.272Z,15.83
2019-06-10T22:13:56.377Z,15.73
2019-06-10T22:16:25.890Z,15.74
2019-06-10T22:18:55.370Z,15.67
2019-06-10T22:21:24.938Z,15.62
2019-06-10T22:23:56.931Z,15.63
2019-06-10T22:26:25.569Z,15.59
2019-06-10T22:28:57.521Z,15.49
2019-06-10T22:31:26.671Z,15.44
2019-06-10T22:33:57.610Z,15.41
2019-06-10T22:36:27.287Z,15.41
2019-06-10T22:38:58.958Z,15.37
2019-06-10T22:41:27.949Z,15.28
2019-06-10T22:43:57.692Z,15.27
2019-06-10T22:46:27.317Z,15.23
2019-06-10T22:48:57.422Z,15.23
2019-06-10T22:51:26.892Z,15.18
2019-06-10T22:53:58.435Z,15.21
2019-06-10T22:56:27.581Z,15.28
2019-06-10T22:58:57.420Z,15.28
2019-06-10T23:01:34.175Z,15.23
2019-06-10T23:03:58.164Z,15.30
2019-06-10T23:06:27.658Z,15.28
2019-06-10T23:08:58.158Z,15.25
2019-06-10T23:11:28.288Z,15.27
2019-06-10T23:13:58.442Z,15.23
2019-06-10T23:16:29.135Z,15.21
2019-06-10T23:18:59.866Z,15.24
2019-06-10T23:21:29.503Z,15.22
2019-06-10T23:24:00.141Z,15.16
2019-06-10T23:26:30.275Z,15.07
2019-06-10T23:29:00.241Z,15.04
2019-06-10T23:31:29.704Z,14.97
2019-06-10T23:33:59.151Z,15.01
2019-06-10T23:36:28.744Z,15.02
2019-06-10T23:38:58.921Z,14.92
2019-06-10T23:41:28.412Z,14.97
2019-06-10T23:43:59.142Z,14.99
2019-06-10T23:46:28.666Z,15.00
2019-06-10T23:48:58.047Z,14.94
2019-06-10T23:51:27.532Z,15.00
2019-06-10T23:53:58.871Z,14.95
2019-06-10T23:56:28.135Z,14.91
2019-06-10T23:58:58.602Z,14.96
